PFYU Airport (Fort Yukon) Information

FAA: FYU - ICAO: PFYU

PFYU Airport Location

State Alaska
County Yukon-Koyukuk
City Fort Yukon
PFYU Airport is 0 miles north of Fort Yukon, AK.
Latitude 66-34-20.7000N
Longitude 145-14-46.8000W
Elevation 447ft

PFYU Airport METARs

METAR PFYU 072056Z AUTO 00000KT 10SM OVC028 M12/M13 A2956 RMK AO2 SLP027 T11171133 58004 FZRANO
Altimeter 29.56"
Temperature -11.7°C (10.9°F)
Wind 0° at 0KT
Clouds overcast at 2,800ft
Visibility 10.0mi
Time observed: 2022-12-07T20:56:00Z

PFYU Airport Details

Status Operational
Activation September 1947
Ownership Public
Usage Public
Chart FAIRBANKS
ATC on-site No
Beacon schedule sunset-sunrise
Beacon color clear green

PFYU Airport Contacts

Owner ALASKA DOT&PF NORTHERN REGION
Owner address 2301 PEGER RD, FAIRBANKS, AK 99709
Owner phone (907) 451-5280
Manager N/A
Manager address N/A, N/A
Manager phone N/A

PFYU Airport (Fort Yukon) Radio Frequencies

PFYU (Airport) Radio Frequencies

UNICOM N/A
Common traffic advisory frequency (CTAF) 122.5